Time;durP1;ratioP1;P1;durP2;ratioP2;P2;SDS_P1;SDS_P2;PMS_P1;PMS_P2;Temp;Humidity;BMP_temperature;BMP_pressure;BME280_temperature;BME280_humidity;BME280_pressure;Samples;Min_cycle;Max_cycle;Signal;HPM_P1;HPM_P2
2023/08/20 00:00:33;;;;;;;2.13;1.92;;;24.90;72.60;;;;;;4959734;28;87831;-90
2023/08/20 00:03:04;;;;;;;1.88;1.77;;;24.90;72.70;;;;;;4960253;28;87098;-89
2023/08/20 00:05:31;;;;;;;2.05;1.88;;;24.90;72.70;;;;;;4961731;28;87581;-89
2023/08/20 00:07:56;;;;;;;4.20;2.03;;;24.90;72.60;;;;;;4959620;28;89175;-90
2023/08/20 00:10:22;;;;;;;2.83;2.35;;;24.80;72.70;;;;;;4991847;28;91550;-91
2023/08/20 00:12:48;;;;;;;2.15;1.88;;;24.90;72.80;;;;;;4992648;28;87325;-91
2023/08/20 00:15:13;;;;;;;2.67;1.75;;;24.80;72.70;;;;;;4960819;28;87447;-90
2023/08/20 00:17:41;;;;;;;2.70;2.15;;;24.80;72.70;;;;;;4962608;28;88051;-89
2023/08/20 00:20:15;;;;;;;2.13;1.92;;;24.90;72.80;;;;;;4958822;28;90221;-89
2023/08/20 00:22:45;;;;;;;3.30;2.20;;;24.80;72.70;;;;;;4960872;28;87511;-89
2023/08/20 00:25:12;;;;;;;2.72;1.92;;;24.80;72.80;;;;;;4962685;28;86880;-89
2023/08/20 00:27:39;;;;;;;2.47;1.88;;;24.80;72.80;;;;;;4960726;28;89781;-91
2023/08/20 00:30:05;;;;;;;2.35;1.92;;;24.80;72.70;;;;;;4963257;28;87587;-88
2023/08/20 00:32:31;;;;;;;2.40;2.20;;;24.80;72.70;;;;;;4960025;28;88245;-86
2023/08/20 00:34:57;;;;;;;2.22;1.90;;;24.80;72.60;;;;;;4958984;28;87615;-88
2023/08/20 00:37:22;;;;;;;2.03;1.83;;;24.80;72.70;;;;;;4959535;28;87366;-89
2023/08/20 00:39:48;;;;;;;2.20;2.00;;;24.80;72.80;;;;;;4992812;28;90442;-88
2023/08/20 00:42:14;;;;;;;3.17;1.98;;;24.80;72.90;;;;;;4958886;28;87619;-88
2023/08/20 00:44:41;;;;;;;2.28;2.00;;;24.80;72.70;;;;;;4958558;28;87409;-90
2023/08/20 00:47:08;;;;;;;2.30;2.00;;;24.80;72.80;;;;;;4959436;28;87238;-87
2023/08/20 00:49:34;;;;;;;1.60;1.50;;;24.80;72.90;;;;;;4955904;28;87277;-88
2023/08/20 00:52:01;;;;;;;2.20;1.98;;;24.80;72.80;;;;;;4953776;28;87758;-89
2023/08/20 00:54:27;;;;;;;2.80;2.40;;;24.80;72.70;;;;;;4958600;28;88141;-87
2023/08/20 00:56:53;;;;;;;2.72;2.05;;;24.80;72.50;;;;;;4957853;28;89134;-86
2023/08/20 00:59:20;;;;;;;2.58;1.95;;;24.80;72.40;;;;;;4958667;28;88240;-89
2023/08/20 01:01:46;;;;;;;2.40;2.20;;;24.80;72.60;;;;;;4960567;28;88007;-89
2023/08/20 01:04:12;;;;;;;2.00;1.90;;;24.80;72.40;;;;;;4956771;28;87532;-90
2023/08/20 01:06:55;;;;;;;2.88;2.10;;;24.80;72.50;;;;;;4959345;28;88504;-91
2023/08/20 01:09:58;;;;;;;3.30;2.10;;;24.70;72.60;;;;;;4956795;28;88347;-90
2023/08/20 01:12:25;;;;;;;2.97;1.90;;;24.70;72.50;;;;;;4961229;28;87178;-90
2023/08/20 01:14:51;;;;;;;2.95;2.13;;;24.80;72.60;;;;;;4960053;28;86704;-88
2023/08/20 01:17:17;;;;;;;2.90;2.00;;;24.70;72.40;;;;;;4958435;28;87774;-88
2023/08/20 01:19:42;;;;;;;2.10;1.90;;;24.70;72.40;;;;;;4958855;28;87185;-88
2023/08/20 01:22:36;;;;;;;1.95;1.77;;;24.80;72.40;;;;;;4989636;28;88272;-88
2023/08/20 01:25:32;;;;;;;4.88;2.08;;;24.80;72.30;;;;;;4958842;28;87964;-89
2023/08/20 01:28:27;;;;;;;4.05;1.83;;;24.80;72.30;;;;;;4952382;28;90845;-88
2023/08/20 01:30:56;;;;;;;2.22;2.03;;;24.80;72.80;;;;;;4957884;28;87617;-89
2023/08/20 01:33:22;;;;;;;1.85;1.75;;;24.70;72.60;;;;;;4956852;28;87989;-87
2023/08/20 01:35:48;;;;;;;1.85;1.65;;;24.70;72.50;;;;;;4956755;28;87247;-88
2023/08/20 01:38:13;;;;;;;2.30;2.10;;;24.70;72.60;;;;;;4958493;28;89064;-87
2023/08/20 01:40:39;;;;;;;2.20;2.00;;;24.70;72.70;;;;;;4957046;28;87984;-90
2023/08/20 01:43:05;;;;;;;3.80;2.35;;;24.70;72.50;;;;;;4973557;28;87017;-90
2023/08/20 01:45:30;;;;;;;2.08;1.83;;;24.70;72.60;;;;;;4956776;28;87814;-87
2023/08/20 01:47:56;;;;;;;1.88;1.77;;;24.70;72.50;;;;;;4955351;28;89634;-87
2023/08/20 01:50:22;;;;;;;2.15;1.95;;;24.70;72.50;;;;;;4956017;28;91489;-88
2023/08/20 01:52:47;;;;;;;2.60;1.58;;;24.70;72.70;;;;;;4990560;28;87655;-91
2023/08/20 01:55:13;;;;;;;2.65;2.20;;;24.70;72.80;;;;;;4957774;28;87821;-87
2023/08/20 01:57:39;;;;;;;2.30;1.90;;;24.70;72.50;;;;;;4959134;28;88019;-87
2023/08/20 02:00:06;;;;;;;2.38;2.10;;;24.70;72.50;;;;;;4958756;28;87870;-89
2023/08/20 02:02:32;;;;;;;2.53;1.98;;;24.70;72.50;;;;;;4956755;28;88501;-89
2023/08/20 02:04:58;;;;;;;2.80;2.50;;;24.70;72.50;;;;;;4956621;28;89470;-87
2023/08/20 02:07:23;;;;;;;3.60;2.03;;;24.70;72.50;;;;;;4959660;28;88328;-87
2023/08/20 02:09:49;;;;;;;3.55;2.60;;;24.70;72.40;;;;;;4957842;28;88569;-86
2023/08/20 02:12:15;;;;;;;3.47;3.00;;;24.70;72.30;;;;;;4956696;28;88180;-90
2023/08/20 02:14:40;;;;;;;2.85;2.50;;;24.70;72.10;;;;;;4957717;28;88466;-88
2023/08/20 02:17:07;;;;;;;2.50;2.17;;;24.70;72.10;;;;;;4956321;28;88492;-89
2023/08/20 02:19:33;;;;;;;2.58;2.28;;;24.70;72.30;;;;;;4956469;28;87439;-86
2023/08/20 02:21:59;;;;;;;1.70;1.60;;;24.70;72.30;;;;;;4954992;28;87258;-87
2023/08/20 02:24:24;;;;;;;2.20;1.98;;;24.70;72.40;;;;;;4957640;28;87058;-91
2023/08/20 02:26:50;;;;;;;2.85;2.25;;;24.70;72.40;;;;;;4959547;28;88138;-85
2023/08/20 02:29:15;;;;;;;2.35;1.83;;;24.70;72.50;;;;;;4957328;28;87087;-91
2023/08/20 02:31:41;;;;;;;2.35;1.98;;;24.70;72.50;;;;;;4958539;28;87702;-86
2023/08/20 02:34:07;;;;;;;2.47;1.95;;;24.70;72.40;;;;;;4955807;28;87652;-87
2023/08/20 02:36:32;;;;;;;2.38;2.08;;;24.70;72.30;;;;;;4958690;28;89516;-91
2023/08/20 02:38:58;;;;;;;1.85;1.70;;;24.60;72.50;;;;;;4988926;28;91141;-86
2023/08/20 02:41:23;;;;;;;1.92;1.70;;;24.60;72.20;;;;;;4955287;28;87695;-90
2023/08/20 02:43:49;;;;;;;1.92;1.70;;;24.70;72.50;;;;;;4956000;28;87197;-92
2023/08/20 02:46:15;;;;;;;3.22;2.45;;;24.60;72.40;;;;;;4957136;28;88235;-89
2023/08/20 02:48:40;;;;;;;2.13;1.98;;;24.70;72.40;;;;;;4990270;28;90439;-87
2023/08/20 02:51:06;;;;;;;2.22;1.95;;;24.70;72.40;;;;;;4957458;28;87628;-87
2023/08/20 02:53:32;;;;;;;2.85;1.92;;;24.60;72.30;;;;;;4957019;28;87097;-87
2023/08/20 02:55:58;;;;;;;1.73;1.63;;;24.60;73.20;;;;;;4959159;28;87727;-85
2023/08/20 02:58:24;;;;;;;2.22;1.90;;;24.60;72.40;;;;;;4986626;28;90412;-89
2023/08/20 03:00:50;;;;;;;2.25;1.83;;;24.60;73.20;;;;;;4960764;28;88543;-91
2023/08/20 03:03:15;;;;;;;2.13;1.90;;;24.60;72.40;;;;;;4959276;28;89734;-88
2023/08/20 03:05:43;;;;;;;1.70;1.60;;;24.60;72.50;;;;;;4959574;28;87683;-89
2023/08/20 03:08:09;;;;;;;1.98;1.85;;;24.60;72.30;;;;;;4961004;28;87756;-88
2023/08/20 03:10:35;;;;;;;2.50;2.10;;;24.60;72.40;;;;;;4958865;28;88093;-86
2023/08/20 03:13:02;;;;;;;2.45;1.85;;;24.60;72.40;;;;;;4961785;28;87554;-91
2023/08/20 03:15:28;;;;;;;4.43;2.08;;;24.60;72.50;;;;;;4963499;28;88054;-87
2023/08/20 03:17:54;;;;;;;2.25;1.75;;;24.60;72.50;;;;;;4960822;28;89115;-90
2023/08/20 03:20:19;;;;;;;1.80;1.70;;;24.60;72.30;;;;;;4961007;28;87306;-90
2023/08/20 03:22:45;;;;;;;2.08;1.88;;;24.60;72.40;;;;;;4961434;28;87589;-88
2023/08/20 03:25:10;;;;;;;1.88;1.77;;;24.60;72.50;;;;;;4961456;28;88680;-87
2023/08/20 03:27:36;;;;;;;1.80;1.67;;;24.60;72.40;;;;;;4958889;28;88733;-88
2023/08/20 03:30:03;;;;;;;2.50;1.95;;;24.60;72.30;;;;;;4961341;28;87135;-90
2023/08/20 03:32:29;;;;;;;2.53;1.80;;;24.60;72.30;;;;;;4958515;28;87874;-88
2023/08/20 03:34:55;;;;;;;1.90;1.60;;;24.60;72.30;;;;;;4960063;28;88083;-89
2023/08/20 03:37:22;;;;;;;2.35;2.15;;;24.60;72.30;;;;;;4992597;28;88921;-90
2023/08/20 03:39:47;;;;;;;2.00;1.80;;;24.60;72.20;;;;;;4960987;28;88284;-90
2023/08/20 03:42:13;;;;;;;2.05;1.77;;;24.60;72.30;;;;;;4958932;28;86662;-86
2023/08/20 03:44:39;;;;;;;1.98;1.75;;;24.60;72.30;;;;;;4959922;28;88484;-90
2023/08/20 03:47:04;;;;;;;1.90;1.58;;;24.60;72.30;;;;;;4962058;28;87499;-91
2023/08/20 03:49:30;;;;;;;2.13;1.73;;;24.50;72.90;;;;;;4959184;28;88884;-91
2023/08/20 03:51:56;;;;;;;1.83;1.73;;;24.60;72.20;;;;;;4960118;28;89819;-92
2023/08/20 03:54:21;;;;;;;2.67;1.90;;;24.50;72.10;;;;;;4960848;28;87011;-89
2023/08/20 03:56:47;;;;;;;1.98;1.80;;;24.60;72.20;;;;;;4959736;28;90668;-89
2023/08/20 03:59:13;;;;;;;2.13;1.92;;;24.50;72.00;;;;;;4960869;28;88037;-87
2023/08/20 04:01:39;;;;;;;2.00;1.80;;;24.50;72.20;;;;;;4959942;28;87322;-88
2023/08/20 04:04:04;;;;;;;2.05;1.90;;;24.60;72.40;;;;;;4959944;28;88720;-88
2023/08/20 04:06:30;;;;;;;2.47;1.92;;;24.50;72.20;;;;;;4961653;28;87381;-90
2023/08/20 04:08:56;;;;;;;2.05;1.85;;;24.50;72.40;;;;;;4962501;28;87420;-89
2023/08/20 04:11:21;;;;;;;3.53;2.13;;;24.50;72.50;;;;;;4957551;28;89247;-88
2023/08/20 04:13:47;;;;;;;2.20;1.60;;;24.50;72.40;;;;;;4988909;28;91172;-90
2023/08/20 04:16:13;;;;;;;2.00;1.80;;;24.50;72.30;;;;;;4961376;28;87597;-87
2023/08/20 04:18:39;;;;;;;1.95;1.80;;;24.50;72.30;;;;;;4960917;28;87776;-87
2023/08/20 04:21:07;;;;;;;1.88;1.75;;;24.50;72.40;;;;;;4962030;28;87948;-89
2023/08/20 04:23:32;;;;;;;2.00;1.80;;;24.50;72.30;;;;;;4957809;28;88956;-87
2023/08/20 04:25:58;;;;;;;2.10;1.90;;;24.50;72.20;;;;;;4993099;28;90327;-90
2023/08/20 04:28:24;;;;;;;1.75;1.60;;;24.50;72.40;;;;;;4963402;28;87515;-91
2023/08/20 04:30:54;;;;;;;2.25;2.05;;;24.50;72.30;;;;;;4959914;28;87043;-89
2023/08/20 04:33:20;;;;;;;2.63;1.88;;;24.50;73.20;;;;;;4958449;28;90731;-90
2023/08/20 04:35:46;;;;;;;2.42;1.83;;;24.50;72.40;;;;;;4958770;28;87532;-91
2023/08/20 04:38:11;;;;;;;2.45;1.92;;;24.50;72.20;;;;;;4959468;28;89548;-88
2023/08/20 04:40:37;;;;;;;2.33;2.05;;;24.50;72.20;;;;;;4988342;28;89518;-89
2023/08/20 04:43:03;;;;;;;2.30;2.10;;;24.50;72.30;;;;;;4959092;28;88159;-89
2023/08/20 04:45:28;;;;;;;1.85;1.67;;;24.50;72.30;;;;;;4959627;28;87910;-89
2023/08/20 04:47:54;;;;;;;2.33;2.08;;;24.50;72.30;;;;;;4960025;28;87252;-87
2023/08/20 04:50:19;;;;;;;2.47;2.28;;;24.50;72.20;;;;;;4957389;28;87327;-86
2023/08/20 04:52:45;;;;;;;2.00;1.80;;;24.50;72.10;;;;;;4957436;28;88641;-89
2023/08/20 04:55:11;;;;;;;2.03;1.92;;;24.50;72.20;;;;;;4957863;28;87072;-86
2023/08/20 04:57:37;;;;;;;2.67;2.05;;;24.50;72.10;;;;;;4955454;28;87986;-89
2023/08/20 05:00:03;;;;;;;2.53;2.15;;;24.50;72.00;;;;;;4956333;28;87734;-86
2023/08/20 05:02:28;;;;;;;2.20;2.00;;;24.50;72.00;;;;;;4958822;28;88731;-88
2023/08/20 05:04:55;;;;;;;3.22;2.30;;;24.50;72.10;;;;;;4958140;28;88219;-87
2023/08/20 05:07:20;;;;;;;1.80;1.70;;;24.50;72.00;;;;;;4955974;28;87218;-88
2023/08/20 05:09:46;;;;;;;2.22;1.90;;;24.50;72.10;;;;;;4957929;28;87113;-87
2023/08/20 05:12:12;;;;;;;2.70;1.80;;;24.40;72.00;;;;;;4959148;28;89067;-88
2023/08/20 05:14:37;;;;;;;1.83;1.73;;;24.50;71.80;;;;;;4959784;28;88341;-91
2023/08/20 05:17:03;;;;;;;3.65;2.05;;;24.50;72.00;;;;;;4989295;28;87626;-88
2023/08/20 05:19:29;;;;;;;2.53;1.80;;;24.50;72.20;;;;;;4959508;28;86892;-86
2023/08/20 05:21:58;;;;;;;1.80;1.65;;;24.50;72.10;;;;;;4954676;28;88099;-87
2023/08/20 05:24:24;;;;;;;2.38;2.13;;;24.50;72.00;;;;;;4956850;28;87935;-90
2023/08/20 05:27:17;;;;;;;2.53;1.88;;;24.50;72.10;;;;;;4990260;28;88129;-88
2023/08/20 05:29:43;;;;;;;2.30;2.10;;;24.50;72.00;;;;;;4956854;28;90938;-89
2023/08/20 05:32:09;;;;;;;2.33;2.08;;;24.50;72.10;;;;;;4957767;28;91611;-86
2023/08/20 05:34:35;;;;;;;2.30;2.10;;;24.50;71.90;;;;;;4954855;28;87592;-86
2023/08/20 05:37:00;;;;;;;2.00;1.70;;;24.50;71.80;;;;;;4990491;28;87614;-87
2023/08/20 05:39:27;;;;;;;2.53;1.70;;;24.50;71.80;;;;;;4959020;28;87477;-88
2023/08/20 05:41:55;;;;;;;1.88;1.77;;;24.50;71.90;;;;;;4960008;28;87975;-88
2023/08/20 05:44:21;;;;;;;2.27;2.07;;;24.50;71.70;;;;;;4990807;28;90465;-87
2023/08/20 05:46:47;;;;;;;1.92;1.73;;;24.60;71.60;;;;;;4959687;28;87185;-90
2023/08/20 05:49:15;;;;;;;2.58;2.08;;;24.60;71.60;;;;;;4958145;28;87148;-86
2023/08/20 05:51:45;;;;;;;2.00;1.73;;;24.60;71.70;;;;;;4958752;28;88503;-87
2023/08/20 05:54:11;;;;;;;;;;;24.60;71.60;;;;;;4959477;28;88468;-91
2023/08/20 05:56:37;;;;;;;2.03;1.75;;;24.70;71.60;;;;;;4959863;28;87525;-89
2023/08/20 05:59:02;;;;;;;2.65;1.88;;;24.70;71.50;;;;;;4957148;28;87865;-88
2023/08/20 06:01:28;;;;;;;2.50;1.70;;;24.70;71.40;;;;;;4959743;28;87531;-88
2023/08/20 06:03:54;;;;;;;2.03;1.50;;;24.70;71.60;;;;;;4989767;28;88733;-89
2023/08/20 06:06:19;;;;;;;2.03;1.73;;;24.80;71.30;;;;;;4959391;28;87400;-89
2023/08/20 06:08:45;;;;;;;2.35;1.98;;;24.80;71.30;;;;;;4960439;28;87138;-88
2023/08/20 06:11:10;;;;;;;2.20;1.60;;;24.90;70.80;;;;;;4958110;28;88395;-87
2023/08/20 06:13:36;;;;;;;1.75;1.60;;;24.90;70.60;;;;;;4956230;28;90186;-86
2023/08/20 06:16:02;;;;;;;2.03;1.83;;;25.00;70.60;;;;;;4958947;28;88154;-90
2023/08/20 06:18:27;;;;;;;1.77;1.67;;;25.00;70.50;;;;;;4958032;28;87648;-87
2023/08/20 06:20:53;;;;;;;1.60;1.50;;;25.10;70.60;;;;;;4957822;28;87710;-89
2023/08/20 06:23:19;;;;;;;1.90;1.80;;;25.10;70.20;;;;;;4955835;28;90344;-88
2023/08/20 06:25:44;;;;;;;2.10;1.90;;;25.20;70.10;;;;;;4957145;28;87959;-86
2023/08/20 06:28:10;;;;;;;1.70;1.60;;;25.30;70.10;;;;;;4957158;28;87143;-88
2023/08/20 06:30:36;;;;;;;2.08;1.60;;;25.30;69.60;;;;;;4956261;28;88032;-89
2023/08/20 06:33:01;;;;;;;1.60;1.50;;;25.40;69.50;;;;;;4956618;28;88097;-87
2023/08/20 06:35:27;;;;;;;2.15;1.60;;;25.50;69.40;;;;;;4958287;28;87692;-88
2023/08/20 06:37:52;;;;;;;2.85;1.95;;;25.50;69.30;;;;;;4955522;28;92119;-88
2023/08/20 06:40:18;;;;;;;2.45;1.88;;;25.60;69.20;;;;;;4955582;28;92228;-90
2023/08/20 06:42:44;;;;;;;1.88;1.70;;;25.70;69.30;;;;;;4954863;28;89036;-91
2023/08/20 06:45:10;;;;;;;1.70;1.60;;;25.70;69.00;;;;;;4972443;28;87777;-88
2023/08/20 06:47:35;;;;;;;2.25;1.92;;;25.70;69.00;;;;;;4957852;28;87245;-89
2023/08/20 06:50:02;;;;;;;1.75;1.65;;;25.80;68.90;;;;;;4956040;28;88485;-90
2023/08/20 06:52:27;;;;;;;2.30;1.73;;;25.80;68.90;;;;;;4956624;28;87886;-84
2023/08/20 06:54:53;;;;;;;3.90;2.00;;;25.80;68.80;;;;;;4955048;28;87343;-90
2023/08/20 06:57:19;;;;;;;3.63;1.92;;;25.70;67.10;;;;;;4952601;28;86814;-90
2023/08/20 06:59:44;;;;;;;2.33;1.70;;;25.60;67.80;;;;;;4956902;28;89164;-84
2023/08/20 07:02:10;;;;;;;3.72;1.65;;;25.50;67.10;;;;;;4953448;28;87657;-87
2023/08/20 07:04:36;;;;;;;3.63;2.30;;;25.40;67.70;;;;;;4952290;28;88735;-89
2023/08/20 07:07:04;;;;;;;5.57;2.15;;;25.30;67.40;;;;;;4955163;28;87443;-83
2023/08/20 07:09:30;;;;;;;4.40;2.15;;;25.20;66.80;;;;;;4953257;28;88055;-87
2023/08/20 07:11:56;;;;;;;3.50;1.83;;;25.20;67.40;;;;;;4951317;28;88164;-88
2023/08/20 07:14:22;;;;;;;4.95;1.92;;;25.20;67.30;;;;;;4952594;28;87333;-89
2023/08/20 07:16:47;;;;;;;4.78;2.35;;;25.20;67.70;;;;;;4950905;28;88012;-85
2023/08/20 07:19:13;;;;;;;4.57;2.60;;;25.20;67.40;;;;;;4948273;28;89198;-86
2023/08/20 07:21:39;;;;;;;10.07;3.20;;;25.20;67.30;;;;;;4954999;28;87377;-88
2023/08/20 07:24:04;;;;;;;6.30;2.90;;;25.20;68.40;;;;;;4986370;28;87861;-88
2023/08/20 07:26:30;;;;;;;7.70;2.90;;;25.20;67.50;;;;;;4954471;28;88815;-90
2023/08/20 07:28:56;;;;;;;12.60;3.60;;;25.20;67.80;;;;;;4957008;28;88670;-84
2023/08/20 07:31:24;;;;;;;8.88;3.22;;;25.20;67.20;;;;;;4984171;28;90121;-88
2023/08/20 07:33:51;;;;;;;8.15;3.53;;;25.20;67.50;;;;;;4953331;28;87532;-89
2023/08/20 07:36:19;;;;;;;9.20;3.28;;;25.10;67.50;;;;;;4986613;28;88380;-92
2023/08/20 07:38:45;;;;;;;8.15;2.85;;;25.10;67.60;;;;;;4952528;28;87545;-88
2023/08/20 07:41:11;;;;;;;8.98;3.25;;;25.00;67.60;;;;;;4949283;28;87709;-85
2023/08/20 07:43:38;;;;;;;9.23;3.13;;;25.00;67.80;;;;;;4952809;28;87924;-88
2023/08/20 07:46:05;;;;;;;8.70;3.33;;;25.00;67.90;;;;;;4956069;28;86562;-87
2023/08/20 07:48:30;;;;;;;9.30;2.95;;;25.00;67.60;;;;;;4953485;28;87979;-84
2023/08/20 07:50:56;;;;;;;5.00;2.92;;;25.00;67.90;;;;;;4958589;28;87854;-85
2023/08/20 07:53:22;;;;;;;6.82;2.88;;;25.00;67.50;;;;;;4952460;28;88824;-85
2023/08/20 07:55:48;;;;;;;8.35;3.80;;;25.00;67.90;;;;;;4957090;28;88383;-85
2023/08/20 07:58:13;;;;;;;6.43;3.20;;;25.00;67.70;;;;;;4955007;28;87641;-90
2023/08/20 08:00:39;;;;;;;10.13;3.83;;;25.00;67.80;;;;;;4957679;28;88015;-90
2023/08/20 08:03:05;;;;;;;7.25;2.70;;;25.00;67.80;;;;;;4957349;28;87463;-87
2023/08/20 08:05:31;;;;;;;10.70;3.22;;;25.00;67.80;;;;;;4956303;28;87872;-86
2023/08/20 08:07:57;;;;;;;6.32;2.90;;;25.00;67.60;;;;;;4953819;28;90771;-88
2023/08/20 08:10:22;;;;;;;5.82;2.70;;;25.10;67.60;;;;;;4957552;28;87873;-92
2023/08/20 08:12:48;;;;;;;7.95;2.83;;;25.10;67.60;;;;;;4959817;28;87489;-93
2023/08/20 08:15:13;;;;;;;5.78;2.88;;;25.10;67.60;;;;;;4958124;28;87571;-87
2023/08/20 08:17:39;;;;;;;11.73;3.53;;;25.10;67.60;;;;;;4956161;28;88934;-91
2023/08/20 08:20:06;;;;;;;21.58;6.00;;;25.10;67.60;;;;;;4958943;28;89260;-86
2023/08/20 08:22:31;;;;;;;13.40;3.88;;;25.20;67.90;;;;;;4954469;28;87672;-84
2023/08/20 08:24:57;;;;;;;49.83;10.50;;;25.20;68.00;;;;;;4956364;28;87415;-85
2023/08/20 08:27:23;;;;;;;45.70;10.75;;;25.20;67.50;;;;;;4955138;28;88100;-84
2023/08/20 08:29:48;;;;;;;62.33;14.40;;;25.20;67.50;;;;;;4957806;28;88260;-88
2023/08/20 08:32:14;;;;;;;63.78;14.40;;;25.20;68.50;;;;;;4950040;28;88110;-87
2023/08/20 08:34:40;;;;;;;54.80;14.00;;;25.20;67.80;;;;;;4950631;28;88402;-88
2023/08/20 08:37:05;;;;;;;59.47;12.65;;;25.20;67.80;;;;;;4949821;28;87448;-88
2023/08/20 08:39:32;;;;;;;95.60;22.30;;;25.20;67.80;;;;;;4955733;28;87862;-89
2023/08/20 08:42:05;;;;;;;217.75;54.78;;;25.20;67.60;;;;;;4950017;28;88941;-89
2023/08/20 08:44:34;;;;;;;290.65;82.78;;;25.20;68.00;;;;;;4952190;28;89325;-87
2023/08/20 08:47:06;;;;;;;;;;;25.20;68.00;;;;;;4956598;28;88058;-90
2023/08/20 08:49:35;;;;;;;250.65;68.43;;;25.20;68.20;;;;;;4955091;28;88306;-88
2023/08/20 08:52:03;;;;;;;221.60;60.67;;;25.20;68.30;;;;;;4954573;28;87557;-89
2023/08/20 08:54:29;;;;;;;191.10;54.63;;;25.20;67.90;;;;;;4952293;28;88458;-90
2023/08/20 08:56:55;;;;;;;178.13;52.10;;;25.20;67.90;;;;;;4956137;28;87400;-85
2023/08/20 08:59:21;;;;;;;171.55;52.00;;;25.20;67.90;;;;;;4957597;28;87729;-89
2023/08/20 09:01:47;;;;;;;193.02;51.53;;;25.20;68.00;;;;;;4951388;28;87311;-92
2023/08/20 09:04:13;;;;;;;170.18;50.22;;;25.20;68.10;;;;;;4955661;28;87499;-88
2023/08/20 09:06:46;;;;;;;137.40;43.88;;;25.20;68.00;;;;;;4954263;28;88935;-88
2023/08/20 09:09:12;;;;;;;146.70;45.20;;;25.20;67.90;;;;;;4956592;28;88132;-87
2023/08/20 09:11:38;;;;;;;129.10;41.38;;;25.20;68.00;;;;;;4950637;28;87356;-87
2023/08/20 09:14:04;;;;;;;140.80;39.65;;;25.20;68.10;;;;;;4951402;28;87567;-86
2023/08/20 09:16:30;;;;;;;112.38;36.13;;;25.20;68.00;;;;;;4954672;28;87974;-86
2023/08/20 09:19:00;;;;;;;110.03;34.72;;;25.20;68.10;;;;;;4953281;28;88579;-89
2023/08/20 09:21:29;;;;;;;106.57;32.38;;;25.20;68.60;;;;;;4950312;28;87871;-87
2023/08/20 09:23:55;;;;;;;;;;;25.20;68.70;;;;;;4958181;28;87105;-88
2023/08/20 09:26:21;;;;;;;89.40;29.02;;;25.20;69.00;;;;;;4952148;28;87887;-88
2023/08/20 09:28:47;;;;;;;79.97;27.70;;;25.30;69.00;;;;;;4951634;28;87571;-86
2023/08/20 09:31:14;;;;;;;83.57;25.52;;;25.30;69.10;;;;;;4947813;28;88824;-85
2023/08/20 09:33:50;;;;;;;70.80;23.38;;;25.30;69.40;;;;;;4953944;28;86940;-89
2023/08/20 09:36:16;;;;;;;74.18;23.70;;;25.30;68.70;;;;;;4952082;28;88171;-88
2023/08/20 09:38:42;;;;;;;76.60;21.65;;;25.30;70.20;;;;;;4952837;28;87018;-87
2023/08/20 09:41:09;;;;;;;58.33;20.98;;;25.30;70.40;;;;;;4956102;28;87193;-86
2023/08/20 09:43:38;;;;;;;50.83;18.77;;;25.30;70.30;;;;;;4953361;28;87917;-88
2023/08/20 09:46:05;;;;;;;59.15;19.52;;;25.30;69.80;;;;;;4954216;28;87931;-85
2023/08/20 09:48:38;;;;;;;49.92;18.90;;;25.30;70.30;;;;;;4951827;28;87347;-85
2023/08/20 09:51:11;;;;;;;53.67;18.83;;;25.30;70.40;;;;;;4955324;28;87570;-89
2023/08/20 09:53:53;;;;;;;51.03;17.85;;;25.30;70.30;;;;;;4952246;28;90537;-86
2023/08/20 09:56:31;;;;;;;43.92;17.27;;;25.30;70.40;;;;;;4953479;28;89016;-85
2023/08/20 09:58:57;;;;;;;41.83;15.55;;;25.30;69.70;;;;;;4953337;28;88852;-86
2023/08/20 10:01:24;;;;;;;51.58;16.80;;;25.30;70.20;;;;;;4955120;28;87343;-84
2023/08/20 10:03:50;;;;;;;56.83;17.55;;;25.30;70.20;;;;;;4948986;28;87686;-85
2023/08/20 10:06:17;;;;;;;46.90;16.55;;;25.30;70.40;;;;;;4949981;28;88629;-86
2023/08/20 10:08:43;;;;;;;52.03;16.40;;;25.30;70.30;;;;;;4949056;28;88154;-85
2023/08/20 10:11:09;;;;;;;56.05;17.75;;;25.30;70.10;;;;;;4949322;28;87840;-86
2023/08/20 10:13:35;;;;;;;45.85;16.05;;;25.30;70.50;;;;;;4950620;28;87007;-85
2023/08/20 10:16:00;;;;;;;40.47;15.65;;;25.30;70.40;;;;;;4944937;28;90528;-85
2023/08/20 10:18:26;;;;;;;43.70;16.08;;;25.30;70.80;;;;;;4948090;28;90303;-86
2023/08/20 10:20:52;;;;;;;43.92;14.60;;;25.40;71.00;;;;;;4946084;28;88323;-85
2023/08/20 10:23:25;;;;;;;43.28;14.88;;;25.30;71.00;;;;;;4951772;28;87987;-85
2023/08/20 10:25:53;;;;;;;32.33;13.75;;;25.30;71.10;;;;;;4946840;28;87776;-85
2023/08/20 10:28:25;;;;;;;35.80;13.10;;;25.30;71.20;;;;;;4948773;28;87756;-86
2023/08/20 10:31:03;;;;;;;35.55;12.40;;;25.30;71.10;;;;;;4946068;28;87031;-88
2023/08/20 10:33:28;;;;;;;37.72;13.90;;;25.30;70.50;;;;;;4968313;28;87702;-86
2023/08/20 10:35:54;;;;;;;30.88;13.35;;;25.30;70.70;;;;;;4948516;28;88209;-86
2023/08/20 10:38:20;;;;;;;33.10;12.85;;;25.30;70.20;;;;;;4955769;28;87736;-85
2023/08/20 10:40:58;;;;;;;30.83;12.32;;;25.30;70.80;;;;;;4948714;28;87916;-86
2023/08/20 10:43:36;;;;;;;30.88;11.88;;;25.30;70.70;;;;;;4952214;28;87859;-89
2023/08/20 10:46:23;;;;;;;24.70;11.23;;;25.30;70.50;;;;;;4947773;28;88716;-86
2023/08/20 10:48:54;;;;;;;26.52;11.60;;;25.30;70.60;;;;;;4943716;28;89591;-86
2023/08/20 10:51:40;;;;;;;28.65;11.63;;;25.30;70.70;;;;;;4956778;28;87676;-87
2023/08/20 10:54:11;;;;;;;22.23;10.20;;;25.30;70.90;;;;;;4954656;28;87432;-89
2023/08/20 10:57:00;;;;;;;25.65;11.40;;;25.40;71.30;;;;;;4948836;28;89128;-88
2023/08/20 10:59:29;;;;;;;26.70;10.45;;;25.60;71.20;;;;;;4952771;28;87780;-90
2023/08/20 11:01:58;;;;;;;21.65;10.32;;;25.70;70.90;;;;;;4950473;28;87431;-90
2023/08/20 11:04:27;;;;;;;;;;;25.70;70.60;;;;;;4957361;28;86684;-93
2023/08/20 11:06:54;;;;;;;;;;;25.80;70.70;;;;;;4956388;28;88044;-91
2023/08/20 11:09:22;;;;;;;28.15;10.10;;;25.80;70.50;;;;;;4961451;28;87165;-95
2023/08/20 11:11:48;;;;;;;25.73;10.32;;;25.80;70.20;;;;;;4958115;28;88755;-94
2023/08/20 11:14:42;;;;;;;22.52;9.07;;;25.80;70.30;;;;;;4957247;28;87617;-93
2023/08/20 11:17:33;;;;;;;27.85;11.02;;;25.80;70.00;;;;;;4957671;28;88936;-94
2023/08/20 11:19:59;;;;;;;20.42;8.95;;;25.80;69.80;;;;;;4957971;28;87856;-88
2023/08/20 11:22:25;;;;;;;25.40;10.20;;;25.80;69.90;;;;;;4958896;28;87408;-88
2023/08/20 11:25:23;;;;;;;25.77;9.68;;;25.80;70.00;;;;;;4950458;28;89121;-87
2023/08/20 11:27:50;;;;;;;24.83;9.80;;;25.80;69.60;;;;;;4955309;28;88342;-88
2023/08/20 11:30:16;;;;;;;26.80;11.23;;;25.90;69.70;;;;;;4990925;28;90124;-86
2023/08/20 11:32:44;;;;;;;28.92;11.15;;;25.80;69.90;;;;;;4959286;28;87458;-85
2023/08/20 11:35:09;;;;;;;24.38;9.98;;;25.70;69.80;;;;;;4955430;28;87620;-89
2023/08/20 11:37:35;;;;;;;25.35;9.27;;;25.60;70.20;;;;;;4989252;28;89242;-91
2023/08/20 11:40:01;;;;;;;26.23;9.35;;;25.50;70.10;;;;;;4962222;28;87574;-91
2023/08/20 11:42:26;;;;;;;26.13;9.75;;;25.50;70.40;;;;;;4957559;28;87926;-92
2023/08/20 11:44:56;;;;;;;33.03;10.60;;;25.40;70.20;;;;;;4959779;28;88485;-90
2023/08/20 11:47:22;;;;;;;33.53;10.70;;;25.40;70.20;;;;;;4959908;28;88606;-92
2023/08/20 11:49:47;;;;;;;35.75;10.88;;;25.50;70.10;;;;;;4961187;28;87685;-88
2023/08/20 11:52:13;;;;;;;24.33;9.38;;;25.40;69.90;;;;;;4961564;28;87428;-90
2023/08/20 11:54:39;;;;;;;21.25;9.52;;;25.40;70.00;;;;;;4961005;28;89768;-91
2023/08/20 11:57:07;;;;;;;23.65;10.02;;;25.40;69.60;;;;;;4960182;28;88748;-92
2023/08/20 11:59:33;;;;;;;22.30;9.43;;;25.40;69.50;;;;;;4993025;28;89513;-89
2023/08/20 12:02:00;;;;;;;19.25;8.13;;;25.40;69.50;;;;;;4959381;28;89089;-92
2023/08/20 12:04:27;;;;;;;22.20;8.40;;;25.40;69.40;;;;;;4959817;28;87192;-90
2023/08/20 12:07:06;;;;;;;22.48;9.43;;;25.40;69.20;;;;;;4959859;28;88233;-87
2023/08/20 12:09:32;;;;;;;19.83;8.65;;;25.40;69.30;;;;;;4991739;28;90091;-90
2023/08/20 12:11:58;;;;;;;16.10;8.27;;;25.40;69.10;;;;;;4991579;28;87508;-91
2023/08/20 12:14:24;;;;;;;20.70;8.52;;;25.40;69.40;;;;;;4961538;28;87280;-89
2023/08/20 12:16:50;;;;;;;21.10;8.93;;;25.40;69.70;;;;;;4960043;28;88104;-89
2023/08/20 12:19:16;;;;;;;19.33;8.70;;;25.40;69.50;;;;;;4991711;28;90541;-87
2023/08/20 12:21:43;;;;;;;22.17;8.55;;;25.40;69.20;;;;;;4959744;28;87604;-89
2023/08/20 12:24:09;;;;;;;21.15;8.07;;;25.40;69.20;;;;;;4992856;28;88394;-89
2023/08/20 12:26:39;;;;;;;18.90;8.43;;;25.40;69.20;;;;;;4961543;28;89024;-90
2023/08/20 12:29:05;;;;;;;17.98;7.70;;;25.40;68.90;;;;;;4960427;28;89479;-91
2023/08/20 12:31:32;;;;;;;19.77;7.43;;;25.40;69.00;;;;;;4958681;28;87742;-91
2023/08/20 12:33:58;;;;;;;15.63;7.50;;;25.40;69.00;;;;;;4958774;28;89618;-91
2023/08/20 12:36:23;;;;;;;14.27;6.82;;;25.40;68.80;;;;;;4989488;28;89430;-91
2023/08/20 12:38:49;;;;;;;14.68;6.93;;;25.40;68.60;;;;;;4992346;28;90314;-88
2023/08/20 12:41:15;;;;;;;18.45;7.72;;;25.40;68.70;;;;;;4991115;28;87635;-90